createdAt,value
2023-01-08T00:00:29.272Z,99767.03
2023-01-08T00:02:57.675Z,99763.63
2023-01-08T00:05:27.572Z,99769.06
2023-01-08T00:07:55.674Z,99761.28
2023-01-08T00:10:24.002Z,99753.59
2023-01-08T00:12:55.904Z,99737.72
2023-01-08T00:15:24.537Z,99587.31
2023-01-08T00:17:52.452Z,99763.44
2023-01-08T00:20:21.882Z,99751.22
2023-01-08T00:22:51.843Z,99756.97
2023-01-08T00:25:21.987Z,99759.78
2023-01-08T00:27:50.389Z,99751.22
2023-01-08T00:30:18.450Z,99747.78
2023-01-08T00:32:46.734Z,99749.75
2023-01-08T00:35:14.929Z,99743.16
2023-01-08T00:37:43.194Z,99740.63
2023-01-08T00:40:11.345Z,99741.63
2023-01-08T00:42:39.733Z,99736.56
2023-01-08T00:45:10.551Z,99743.16
2023-01-08T00:47:38.648Z,99732.81
2023-01-08T00:50:07.093Z,99740.25
2023-01-08T00:52:36.132Z,99723.81
2023-01-08T00:55:04.930Z,99733.31
2023-01-08T00:57:38.926Z,99730.69
2023-01-08T01:00:12.268Z,99736.84
2023-01-08T01:02:41.488Z,99731.13
2023-01-08T01:05:17.615Z,99726.06
2023-01-08T01:07:46.439Z,99725.31
2023-01-08T01:10:17.112Z,99676.47
2023-01-08T01:12:45.613Z,99713.75
2023-01-08T01:15:16.997Z,99709.69
2023-01-08T01:17:46.508Z,99718.34
2023-01-08T01:20:17.386Z,99710.56
2023-01-08T01:22:45.785Z,99712.50
2023-01-08T01:25:14.161Z,99700.47
2023-01-08T01:27:42.998Z,99694.13
2023-01-08T01:30:11.690Z,99694.94
2023-01-08T01:32:39.608Z,99687.66
2023-01-08T01:35:08.728Z,99679.88
2023-01-08T01:37:37.134Z,99682.50
2023-01-08T01:40:05.850Z,99686.81
2023-01-08T01:42:40.073Z,99560.94
2023-01-08T01:45:30.566Z,99648.03
2023-01-08T01:48:04.026Z,99675.91
2023-01-08T01:50:49.017Z,99619.81
2023-01-08T01:53:33.104Z,99670.94
2023-01-08T01:56:04.048Z,99666.97
2023-01-08T01:58:33.096Z,99665.41
2023-01-08T02:01:07.250Z,99669.13
2023-01-08T02:03:39.455Z,99633.22
2023-01-08T02:06:28.749Z,99654.53
2023-01-08T02:10:00.093Z,99664.41
2023-01-08T02:12:59.140Z,99653.38
2023-01-08T02:15:48.970Z,99663.16
2023-01-08T02:18:29.655Z,99613.03
2023-01-08T02:21:04.839Z,99644.69
2023-01-08T02:24:27.900Z,99641.97
2023-01-08T02:26:59.850Z,99641.97
2023-01-08T02:29:29.390Z,99644.97
2023-01-08T02:31:57.939Z,99650.13
2023-01-08T02:34:26.088Z,99645.91
2023-01-08T02:36:57.733Z,99604.78
2023-01-08T02:40:20.871Z,99632.91
2023-01-08T02:43:12.764Z,99625.09
2023-01-08T02:45:49.172Z,99637.69
2023-01-08T02:48:43.239Z,99641.59
2023-01-08T02:51:20.530Z,99627.22
2023-01-08T02:53:53.273Z,99644.31
2023-01-08T02:56:47.147Z,99640.00
2023-01-08T02:59:18.089Z,99652.00
2023-01-08T03:01:46.725Z,99644.69
2023-01-08T03:04:19.912Z,99626.88
2023-01-08T03:06:48.666Z,99636.91
2023-01-08T03:09:17.558Z,99635.06
2023-01-08T03:12:04.922Z,99645.28
2023-01-08T03:15:08.433Z,99638.06
2023-01-08T03:17:46.777Z,99596.75
2023-01-08T03:20:20.632Z,99619.31
2023-01-08T03:22:53.311Z,99627.56
2023-01-08T03:25:24.081Z,99577.66
2023-01-08T03:28:00.812Z,99616.50
2023-01-08T03:30:30.925Z,99583.41
2023-01-08T03:33:02.164Z,99597.00
2023-01-08T03:35:32.112Z,99635.28
2023-01-08T03:38:42.743Z,99577.59
2023-01-08T03:41:15.158Z,99620.91
2023-01-08T03:43:43.121Z,99619.22
2023-01-08T03:46:28.239Z,99611.63
2023-01-08T03:48:57.172Z,99620.06
2023-01-08T03:51:25.686Z,99620.25
2023-01-08T03:53:59.644Z,99576.16
2023-01-08T03:56:27.730Z,99620.50
2023-01-08T03:58:55.780Z,99615.66
2023-01-08T04:01:23.920Z,99610.78
2023-01-08T04:03:51.954Z,99602.16
2023-01-08T04:06:19.809Z,99589.41
2023-01-08T04:08:49.213Z,99612.63
2023-01-08T04:11:17.391Z,99612.72
2023-01-08T04:13:45.616Z,99608.34
2023-01-08T04:16:13.750Z,99615.16
2023-01-08T04:18:42.006Z,99608.25
2023-01-08T04:21:10.346Z,99606.81
2023-01-08T04:23:38.373Z,99609.44
2023-01-08T04:26:08.723Z,99611.22
2023-01-08T04:28:37.373Z,99604.56
2023-01-08T04:31:10.654Z,99615.78
2023-01-08T04:33:38.625Z,99611.59
2023-01-08T04:36:06.906Z,99604.72
2023-01-08T04:38:35.090Z,99561.66
2023-01-08T04:41:03.750Z,99611.66
2023-01-08T04:43:32.818Z,99602.75
2023-01-08T04:46:09.657Z,99594.22
2023-01-08T04:48:37.640Z,99592.75
2023-01-08T04:51:06.090Z,99601.53
2023-01-08T04:53:38.166Z,99594.41
2023-01-08T04:56:09.894Z,99567.75
2023-01-08T04:58:38.772Z,99584.44
2023-01-08T05:01:18.527Z,99586.59
2023-01-08T05:03:46.990Z,99604.41
2023-01-08T05:06:15.147Z,99545.94
2023-01-08T05:08:43.058Z,99594.94
2023-01-08T05:11:11.460Z,99590.72
2023-01-08T05:13:40.228Z,99589.97
2023-01-08T05:16:10.957Z,99588.44
2023-01-08T05:18:39.122Z,99584.06
2023-01-08T05:21:07.026Z,99576.56
2023-01-08T05:23:35.339Z,99593.00
2023-01-08T05:26:05.911Z,99580.28
2023-01-08T05:28:35.045Z,99588.31
2023-01-08T05:31:02.975Z,99584.06
2023-01-08T05:33:31.372Z,99577.25
2023-01-08T05:35:59.506Z,99581.53
2023-01-08T05:38:27.453Z,99585.16
2023-01-08T05:40:55.684Z,99577.41
2023-01-08T05:43:23.714Z,99571.56
2023-01-08T05:45:51.562Z,99575.91
2023-01-08T05:48:19.549Z,99590.69
2023-01-08T05:50:50.522Z,99540.75
2023-01-08T05:53:18.969Z,99582.06
2023-01-08T05:55:47.593Z,99556.03
2023-01-08T05:58:19.324Z,99567.19
2023-01-08T06:00:47.813Z,99582.56
2023-01-08T06:03:15.948Z,99576.22
2023-01-08T06:05:44.031Z,99551.22
2023-01-08T06:08:11.947Z,99582.06
2023-01-08T06:10:42.734Z,99545.25
2023-01-08T06:13:11.208Z,99578.44
2023-01-08T06:15:40.247Z,99594.81
2023-01-08T06:18:08.899Z,99578.75
2023-01-08T06:20:36.887Z,99584.06
2023-01-08T06:23:04.773Z,99590.25
2023-01-08T06:25:32.889Z,99598.19
2023-01-08T06:28:00.989Z,99590.47
2023-01-08T06:30:29.331Z,99592.44
2023-01-08T06:32:59.415Z,99578.09
2023-01-08T06:35:28.068Z,99552.00
2023-01-08T06:37:56.627Z,99595.28
2023-01-08T06:40:25.504Z,99585.75
2023-01-08T06:42:53.851Z,99575.38
2023-01-08T06:45:21.996Z,99589.75
2023-01-08T06:47:50.616Z,99586.44
2023-01-08T06:50:18.938Z,99592.28
2023-01-08T06:52:56.432Z,99591.03
2023-01-08T06:55:25.577Z,99553.06
2023-01-08T06:57:58.428Z,99589.41
2023-01-08T07:00:27.470Z,99550.22
2023-01-08T07:02:55.839Z,99593.38
2023-01-08T07:05:24.701Z,99589.09
2023-01-08T07:07:52.816Z,99586.22
2023-01-08T07:10:21.020Z,99592.81
2023-01-08T07:12:50.788Z,99588.41
2023-01-08T07:15:18.800Z,99590.44
2023-01-08T07:17:46.830Z,99594.75
2023-01-08T07:20:15.090Z,99563.31
2023-01-08T07:22:43.028Z,99552.47
2023-01-08T07:25:11.204Z,99558.06
2023-01-08T07:27:39.761Z,99595.75
2023-01-08T07:30:17.995Z,99553.16
2023-01-08T07:32:53.133Z,99596.78
2023-01-08T07:35:20.999Z,99589.69
2023-01-08T07:37:49.346Z,99600.09
2023-01-08T07:40:17.913Z,99530.63
2023-01-08T07:42:45.937Z,99589.69
2023-01-08T07:45:13.945Z,99571.66
2023-01-08T07:47:42.347Z,99583.50
2023-01-08T07:50:11.125Z,99564.56
2023-01-08T07:52:39.110Z,99576.59
2023-01-08T07:55:08.844Z,99563.41
2023-01-08T07:57:36.776Z,99562.44
2023-01-08T08:00:05.812Z,99557.63
2023-01-08T08:02:35.256Z,99545.47
2023-01-08T08:05:04.498Z,99563.78
2023-01-08T08:07:32.716Z,99536.59
2023-01-08T08:10:05.339Z,99555.91
2023-01-08T08:12:35.571Z,99544.16
2023-01-08T08:15:05.156Z,99486.66
2023-01-08T08:17:33.300Z,99524.75
2023-01-08T08:20:01.323Z,99526.56
2023-01-08T08:22:29.565Z,99486.44
2023-01-08T08:24:57.783Z,99530.91
2023-01-08T08:27:26.044Z,99531.19
2023-01-08T08:29:54.175Z,99527.72
2023-01-08T08:32:22.387Z,99496.56
2023-01-08T08:34:50.901Z,99524.94
2023-01-08T08:37:19.077Z,99461.50
2023-01-08T08:39:47.394Z,99501.41
2023-01-08T08:42:15.687Z,99520.03
2023-01-08T08:44:43.859Z,99516.28
2023-01-08T08:47:12.636Z,99520.69
2023-01-08T08:49:42.266Z,99490.03
2023-01-08T08:52:11.648Z,99518.09
2023-01-08T08:54:41.796Z,99503.72
2023-01-08T08:57:10.792Z,99496.91
2023-01-08T08:59:39.025Z,99506.28
2023-01-08T09:02:07.778Z,99496.25
2023-01-08T09:04:36.617Z,99500.75
2023-01-08T09:07:04.995Z,99450.22
2023-01-08T09:09:33.383Z,99505.25
2023-01-08T09:12:02.388Z,99493.84
2023-01-08T09:14:30.642Z,99497.75
2023-01-08T09:16:59.298Z,99493.19
2023-01-08T09:19:28.411Z,99485.78
2023-01-08T09:21:57.036Z,99491.69
2023-01-08T09:24:25.899Z,99484.00
2023-01-08T09:26:55.060Z,99435.28
2023-01-08T09:29:23.462Z,99467.25
2023-01-08T09:31:52.250Z,99433.59
2023-01-08T09:34:20.588Z,99428.16
2023-01-08T09:36:49.562Z,99415.25
2023-01-08T09:39:18.284Z,99445.53
2023-01-08T09:41:48.477Z,99451.13
2023-01-08T09:44:23.078Z,99430.72
2023-01-08T09:46:51.595Z,99428.25
2023-01-08T09:49:30.470Z,99412.44
2023-01-08T09:52:01.069Z,99431.84
2023-01-08T09:54:32.631Z,99418.72
2023-01-08T09:57:01.489Z,99367.03
2023-01-08T09:59:30.389Z,99379.84
2023-01-08T10:02:00.000Z,99410.47
2023-01-08T10:04:33.678Z,99360.94
2023-01-08T10:07:23.131Z,99396.22
2023-01-08T10:09:53.409Z,99396.78
2023-01-08T10:12:36.146Z,99355.69
2023-01-08T10:15:09.072Z,99399.38
2023-01-08T10:17:39.597Z,99383.41
2023-01-08T10:20:24.217Z,99306.41
2023-01-08T10:22:57.321Z,99401.63
2023-01-08T10:25:28.906Z,99348.56
2023-01-08T10:28:04.485Z,99368.13
2023-01-08T10:30:37.920Z,99334.03
2023-01-08T10:33:31.263Z,99333.28
2023-01-08T10:36:04.041Z,99336.75
2023-01-08T10:38:40.996Z,99385.50
2023-01-08T10:41:14.512Z,99340.38
2023-01-08T10:44:04.774Z,99378.34
2023-01-08T10:46:42.202Z,99374.97
2023-01-08T10:49:42.399Z,99338.75
2023-01-08T10:52:54.397Z,99302.53
2023-01-08T10:55:39.961Z,99352.34
2023-01-08T10:58:11.322Z,99358.69
2023-01-08T11:00:39.950Z,99350.53
2023-01-08T11:03:34.300Z,99345.84
2023-01-08T11:06:19.796Z,99347.34
2023-01-08T11:08:58.894Z,99343.47
2023-01-08T11:11:36.494Z,99309.56
2023-01-08T11:14:16.559Z,99333.09
2023-01-08T11:16:45.010Z,99331.53
2023-01-08T11:19:45.842Z,99306.97
2023-01-08T11:22:25.340Z,99267.63
2023-01-08T11:24:54.639Z,99285.22
2023-01-08T11:27:37.151Z,99159.13
2023-01-08T11:30:21.536Z,99250.16
2023-01-08T11:33:10.055Z,99290.94
2023-01-08T11:36:32.912Z,99292.91
2023-01-08T11:39:02.750Z,99280.59
2023-01-08T11:41:43.237Z,99287.50
2023-01-08T11:44:40.642Z,99252.56
2023-01-08T11:47:57.622Z,99288.19
2023-01-08T11:50:39.049Z,99117.56
2023-01-08T11:53:40.515Z,99234.06
2023-01-08T11:56:45.234Z,99281.38
2023-01-08T11:59:24.293Z,99223.56
2023-01-08T12:02:30.964Z,99227.75
2023-01-08T12:05:31.503Z,99259.31
2023-01-08T12:08:40.598Z,99262.38
2023-01-08T12:11:23.215Z,99263.31
2023-01-08T12:14:22.514Z,99206.56
2023-01-08T12:17:04.472Z,99244.63
2023-01-08T12:19:57.104Z,99243.25
2023-01-08T12:23:08.828Z,99229.91
2023-01-08T12:25:58.821Z,99234.75
2023-01-08T12:28:44.749Z,99210.56
2023-01-08T12:32:01.893Z,99243.66
2023-01-08T12:34:40.743Z,99227.50
2023-01-08T12:37:23.796Z,99231.59
2023-01-08T12:40:23.456Z,99233.47
2023-01-08T12:43:00.552Z,99232.53
2023-01-08T12:45:39.847Z,99214.66
2023-01-08T12:48:31.337Z,99214.25
2023-01-08T12:51:19.130Z,99221.31
2023-01-08T12:53:51.839Z,99215.72
2023-01-08T12:56:44.557Z,99233.03
2023-01-08T12:59:40.507Z,99182.19
2023-01-08T13:03:00.169Z,99218.25
2023-01-08T13:05:32.787Z,99201.53
2023-01-08T13:08:35.891Z,99207.31
2023-01-08T13:11:05.257Z,99214.13
2023-01-08T13:13:44.478Z,99168.97
2023-01-08T13:16:20.819Z,99174.41
2023-01-08T13:18:58.638Z,99213.84
2023-01-08T13:21:44.344Z,99204.06
2023-01-08T13:24:37.885Z,99207.97
2023-01-08T13:27:30.162Z,99209.84
2023-01-08T13:29:59.836Z,99199.44
2023-01-08T13:32:49.251Z,99165.25
2023-01-08T13:35:27.910Z,99206.69
2023-01-08T13:38:10.169Z,99206.91
2023-01-08T13:40:45.131Z,99199.44
2023-01-08T13:43:28.904Z,99195.22
2023-01-08T13:46:04.415Z,99153.19
2023-01-08T13:49:10.073Z,99199.66
2023-01-08T13:51:49.617Z,99193.13
2023-01-08T13:54:42.554Z,99194.94
2023-01-08T13:57:21.190Z,99129.78
2023-01-08T13:59:58.202Z,99133.47
2023-01-08T14:02:30.728Z,99181.28
2023-01-08T14:05:03.995Z,99137.88
2023-01-08T14:07:39.058Z,99144.72
2023-01-08T14:10:13.924Z,99118.56
2023-01-08T14:12:44.556Z,99152.59
2023-01-08T14:15:30.315Z,99156.06
2023-01-08T14:18:02.131Z,99167.09
2023-01-08T14:20:41.563Z,99157.66
2023-01-08T14:23:20.496Z,99170.34
2023-01-08T14:25:50.424Z,99168.69
2023-01-08T14:28:23.672Z,99160.97
2023-01-08T14:30:56.628Z,99168.03
2023-01-08T14:33:34.933Z,99154.91
2023-01-08T14:36:07.959Z,99162.56
2023-01-08T14:38:37.033Z,99096.50
2023-01-08T14:41:14.071Z,99159.41
2023-01-08T14:43:47.703Z,99136.50
2023-01-08T14:46:26.577Z,99159.63
2023-01-08T14:48:56.938Z,99154.69
2023-01-08T14:51:29.721Z,99157.00
2023-01-08T14:54:06.320Z,99149.84
2023-01-08T14:56:36.675Z,99111.94
2023-01-08T14:59:12.488Z,99145.22
2023-01-08T15:01:41.350Z,99149.97
2023-01-08T15:04:22.861Z,99145.84
2023-01-08T15:06:54.134Z,99120.97
2023-01-08T15:09:32.260Z,99157.44
2023-01-08T15:12:03.067Z,99097.47
2023-01-08T15:14:33.964Z,99153.97
2023-01-08T15:17:17.141Z,99133.25
2023-01-08T15:19:59.886Z,99145.34
2023-01-08T15:22:33.036Z,99099.88
2023-01-08T15:25:06.981Z,99145.88
2023-01-08T15:27:37.802Z,99145.00
2023-01-08T15:30:28.067Z,99132.63
2023-01-08T15:33:27.731Z,99135.75
2023-01-08T15:35:57.122Z,99129.25
2023-01-08T15:38:25.822Z,99095.25
2023-01-08T15:40:55.463Z,99145.63
2023-01-08T15:43:24.386Z,99141.13
2023-01-08T15:45:53.534Z,99123.03
2023-01-08T15:48:22.041Z,99117.19
2023-01-08T15:50:52.407Z,99124.84
2023-01-08T15:53:24.814Z,99119.38
2023-01-08T15:55:53.499Z,99071.69
2023-01-08T15:58:21.908Z,99082.63
2023-01-08T16:00:50.632Z,99071.63
2023-01-08T16:03:19.268Z,99095.84
2023-01-08T16:05:48.132Z,99117.47
2023-01-08T16:08:18.666Z,99108.75
2023-01-08T16:10:52.072Z,99116.00
2023-01-08T16:13:20.787Z,99118.50
2023-01-08T16:15:49.106Z,99096.56
2023-01-08T16:18:18.228Z,99101.91
2023-01-08T16:20:47.098Z,99052.97
2023-01-08T16:23:15.688Z,99050.25
2023-01-08T16:25:44.737Z,99090.56
2023-01-08T16:28:13.392Z,99078.19
2023-01-08T16:30:44.568Z,99105.16
2023-01-08T16:33:13.741Z,99074.19
2023-01-08T16:35:43.021Z,99099.78
2023-01-08T16:38:14.682Z,99088.22
2023-01-08T16:40:43.441Z,99092.53
2023-01-08T16:43:12.561Z,99077.44
2023-01-08T16:45:47.382Z,99088.97
2023-01-08T16:48:16.880Z,99068.47
2023-01-08T16:50:46.345Z,99063.59
2023-01-08T16:53:17.800Z,99025.00
2023-01-08T16:55:47.635Z,99027.75
2023-01-08T16:58:17.918Z,99066.22
2023-01-08T17:00:48.803Z,99070.22
2023-01-08T17:03:17.620Z,99065.06
2023-01-08T17:05:46.843Z,99009.13
2023-01-08T17:08:17.311Z,99058.16
2023-01-08T17:10:46.503Z,99041.66
2023-01-08T17:13:16.366Z,98989.16
2023-01-08T17:15:45.388Z,99035.00
2023-01-08T17:18:14.353Z,98991.75
2023-01-08T17:20:43.089Z,98984.72
2023-01-08T17:23:14.515Z,99026.28
2023-01-08T17:25:43.617Z,99025.53
2023-01-08T17:28:12.085Z,99011.28
2023-01-08T17:30:40.844Z,99012.41
2023-01-08T17:33:09.989Z,99001.63
2023-01-08T17:35:42.757Z,98968.28
2023-01-08T17:38:12.431Z,99016.09
2023-01-08T17:40:40.907Z,99008.31
2023-01-08T17:43:12.877Z,99014.63
2023-01-08T17:45:42.072Z,99009.38
2023-01-08T17:48:14.155Z,99008.53
2023-01-08T17:50:42.867Z,98997.53
2023-01-08T17:53:11.807Z,98999.66
2023-01-08T17:55:42.028Z,98985.66
2023-01-08T17:58:11.197Z,98977.06
2023-01-08T18:00:40.113Z,98981.47
2023-01-08T18:03:09.402Z,98935.13
2023-01-08T18:05:37.980Z,98956.94
2023-01-08T18:08:06.693Z,98966.50
2023-01-08T18:10:35.235Z,98957.38
2023-01-08T18:13:04.012Z,98959.25
2023-01-08T18:15:34.855Z,98823.44
2023-01-08T18:18:04.486Z,98954.13
2023-01-08T18:20:33.831Z,98832.25
2023-01-08T18:23:02.933Z,98907.09
2023-01-08T18:25:32.022Z,98930.69
2023-01-08T18:28:01.017Z,98949.13
2023-01-08T18:30:31.162Z,98941.91
2023-01-08T18:32:59.710Z,98955.84
2023-01-08T18:35:28.928Z,98956.16
2023-01-08T18:37:59.919Z,98914.47
2023-01-08T18:40:28.789Z,98951.59
2023-01-08T18:43:00.078Z,98965.75
2023-01-08T18:45:29.657Z,98966.50
2023-01-08T18:48:01.141Z,98820.78
2023-01-08T18:50:29.769Z,98968.38
2023-01-08T18:52:58.165Z,98946.53
2023-01-08T18:55:26.871Z,98930.84
2023-01-08T18:57:55.926Z,98964.19
2023-01-08T19:00:26.536Z,98927.88
2023-01-08T19:02:56.063Z,98978.25
2023-01-08T19:05:24.699Z,98969.63
2023-01-08T19:07:53.691Z,98971.13
2023-01-08T19:10:22.775Z,98936.00
2023-01-08T19:12:53.346Z,98853.91
2023-01-08T19:15:22.697Z,98981.50
2023-01-08T19:17:53.043Z,98853.41
2023-01-08T19:20:21.993Z,98928.69
2023-01-08T19:22:51.985Z,98963.69
2023-01-08T19:25:20.694Z,98961.47
2023-01-08T19:27:49.358Z,98976.81
2023-01-08T19:30:18.225Z,98969.47
2023-01-08T19:32:49.328Z,98959.91
2023-01-08T19:35:18.285Z,98978.09
2023-01-08T19:37:47.148Z,98915.56
2023-01-08T19:40:15.968Z,98938.00
2023-01-08T19:43:03.086Z,98966.50
2023-01-08T19:45:31.741Z,98934.22
2023-01-08T19:48:00.663Z,98944.47
2023-01-08T19:50:30.905Z,98946.78
2023-01-08T19:53:00.511Z,98918.78
2023-01-08T19:55:28.788Z,98953.78
2023-01-08T19:57:57.686Z,98906.22
2023-01-08T20:00:26.439Z,98920.69
2023-01-08T20:02:54.795Z,98940.38
2023-01-08T20:05:23.341Z,98946.97
2023-01-08T20:07:53.232Z,98951.50
2023-01-08T20:10:21.970Z,98953.91
2023-01-08T20:12:51.281Z,98939.63
2023-01-08T20:15:22.364Z,98917.84
2023-01-08T20:17:50.905Z,98956.09
2023-01-08T20:20:20.049Z,98944.34
2023-01-08T20:22:49.724Z,98946.09
2023-01-08T20:25:18.331Z,98941.22
2023-01-08T20:27:47.518Z,98930.72
2023-01-08T20:30:16.056Z,98943.56
2023-01-08T20:32:44.419Z,98938.56
2023-01-08T20:35:13.054Z,98947.22
2023-01-08T20:37:41.555Z,98948.06
2023-01-08T20:40:13.670Z,98895.59
2023-01-08T20:42:46.168Z,98934.34
2023-01-08T20:49:47.196Z,98883.09
2023-01-08T20:52:16.736Z,98913.06
2023-01-08T20:54:45.013Z,98916.69
2023-01-08T20:57:13.619Z,98861.19
2023-01-08T20:59:43.568Z,98918.94
2023-01-08T21:02:12.788Z,98921.25
2023-01-08T21:04:42.037Z,98924.63
2023-01-08T21:07:10.653Z,98899.84
2023-01-08T21:09:40.310Z,98919.25
2023-01-08T21:12:09.066Z,98893.53
2023-01-08T21:14:38.553Z,98775.63
2023-01-08T21:17:06.894Z,98855.81
2023-01-08T21:19:35.572Z,98897.59
2023-01-08T21:22:03.652Z,98895.59
2023-01-08T21:24:33.825Z,98893.78
2023-01-08T21:27:02.596Z,98873.94
2023-01-08T21:29:31.304Z,98889.84
2023-01-08T21:32:00.252Z,98882.94
2023-01-08T21:34:29.478Z,98883.53
2023-01-08T21:36:58.181Z,98884.16
2023-01-08T21:39:26.459Z,98883.19
2023-01-08T21:42:14.029Z,98875.06
2023-01-08T21:45:01.078Z,98866.56
2023-01-08T21:47:29.773Z,98876.16
2023-01-08T21:49:58.718Z,98869.47
2023-01-08T21:52:46.217Z,98877.97
2023-01-08T21:55:18.068Z,98879.88
2023-01-08T21:57:47.022Z,98872.94
2023-01-08T22:00:16.687Z,98875.47
2023-01-08T22:02:45.089Z,98861.22
2023-01-08T22:05:13.871Z,98867.56
2023-01-08T22:07:42.437Z,98823.16
2023-01-08T22:10:12.726Z,98860.63
2023-01-08T22:12:42.969Z,98848.56
2023-01-08T22:15:12.037Z,98815.88
2023-01-08T22:17:40.879Z,98837.06
2023-01-08T22:20:11.579Z,98847.22
2023-01-08T22:22:41.408Z,98784.34
2023-01-08T22:25:11.610Z,98836.38
2023-01-08T22:27:40.793Z,98836.50
2023-01-08T22:30:13.093Z,98826.31
2023-01-08T22:32:41.748Z,98827.66
2023-01-08T22:35:10.543Z,98824.56
2023-01-08T22:37:40.711Z,98811.03
2023-01-08T22:40:11.206Z,98826.22
2023-01-08T22:42:39.602Z,98779.00
2023-01-08T22:45:08.863Z,98817.03
2023-01-08T22:47:37.925Z,98826.56
2023-01-08T22:50:06.768Z,98814.16
2023-01-08T22:52:35.930Z,98814.03
2023-01-08T22:55:05.679Z,98773.03
2023-01-08T22:57:34.650Z,98819.03
2023-01-08T23:00:06.018Z,98817.97
2023-01-08T23:02:36.004Z,98805.53
2023-01-08T23:05:05.734Z,98801.81
2023-01-08T23:07:34.187Z,98794.44
2023-01-08T23:10:02.995Z,98788.91
2023-01-08T23:12:34.556Z,98798.00
2023-01-08T23:15:04.804Z,98785.81
2023-01-08T23:17:38.966Z,98786.75
2023-01-08T23:20:14.831Z,98772.66
2023-01-08T23:22:43.586Z,98766.44
2023-01-08T23:25:12.705Z,98725.31
2023-01-08T23:27:41.628Z,98758.66
2023-01-08T23:30:13.316Z,98744.31
2023-01-08T23:32:41.905Z,98760.31
2023-01-08T23:35:10.357Z,98749.22
2023-01-08T23:37:39.405Z,98772.16
2023-01-08T23:40:09.697Z,98713.13
2023-01-08T23:42:37.989Z,98718.28
2023-01-08T23:45:08.898Z,98756.50
2023-01-08T23:47:39.424Z,98726.63
2023-01-08T23:50:09.221Z,98638.84
2023-01-08T23:52:37.644Z,98738.81
2023-01-08T23:55:06.846Z,98750.72
2023-01-08T23:57:35.180Z,98750.06
